Time;durP1;ratioP1;P1;durP2;ratioP2;P2;SDS_P1;SDS_P2;PMS_P1;PMS_P2;Temp;Humidity;BMP_temperature;BMP_pressure;BME280_temperature;BME280_humidity;BME280_pressure;Samples;Min_cycle;Max_cycle;Signal;HPM_P1;HPM_P2
2023/06/25 00:01:17;;;;;;;3.27;3.03;;;23.70;71.00;;;24.23;nan;100972.13;4992065;28;21238;-66
2023/06/25 00:03:45;;;;;;;3.50;3.20;;;23.70;71.00;;;24.23;nan;100972.97;4989186;28;21177;-66
2023/06/25 00:06:12;;;;;;;4.50;3.67;;;23.60;71.20;;;24.20;nan;100965.31;4991964;28;21023;-66
2023/06/25 00:08:39;;;;;;;5.27;4.23;;;23.60;71.50;;;24.18;nan;100967.38;4990207;28;20635;-66
2023/06/25 00:11:06;;;;;;;6.47;3.90;;;23.60;72.00;;;24.17;nan;100972.91;4992035;28;20587;-66
2023/06/25 00:13:33;;;;;;;3.73;3.27;;;23.50;72.50;;;24.15;nan;100966.94;4989305;28;20641;-68
2023/06/25 00:16:00;;;;;;;4.30;3.90;;;23.50;72.90;;;24.12;nan;100975.28;4992022;28;20662;-66
2023/06/25 00:18:27;;;;;;;4.50;4.10;;;23.50;73.30;;;24.10;nan;100972.81;4989811;28;20630;-67
2023/06/25 00:20:54;;;;;;;4.90;4.03;;;23.50;74.00;;;24.06;nan;100971.56;4988573;28;20629;-65
2023/06/25 00:23:22;;;;;;;6.17;4.57;;;23.40;74.30;;;24.00;nan;100966.94;4990260;28;20630;-67
2023/06/25 00:25:49;;;;;;;5.37;4.10;;;23.40;74.60;;;24.00;nan;100966.94;4986819;28;20676;-68
2023/06/25 00:28:16;;;;;;;3.60;3.33;;;23.40;74.40;;;24.03;nan;100965.72;4991763;28;20641;-69
2023/06/25 00:30:43;;;;;;;5.40;4.23;;;23.40;74.80;;;24.03;nan;100957.72;4997237;28;20639;-68
2023/06/25 00:33:11;;;;;;;6.80;4.90;;;23.40;74.90;;;24.04;nan;100962.94;4991069;28;20645;-67
2023/06/25 00:36:06;;;;;;;4.20;3.90;;;23.40;75.30;;;23.98;nan;100952.97;4999785;28;20678;-68
2023/06/25 00:38:35;;;;;;;5.57;4.53;;;23.40;75.70;;;23.91;nan;100957.41;4982826;28;20649;-67
2023/06/25 00:41:02;;;;;;;3.83;3.50;;;23.30;76.30;;;23.86;nan;100957.97;4975214;28;20708;-66
2023/06/25 00:43:29;;;;;;;9.10;5.07;;;23.30;77.30;;;23.79;nan;100957.06;4989215;28;20598;-67
2023/06/25 00:45:57;;;;;;;4.10;3.27;;;23.20;77.90;;;23.69;nan;100953.88;4989416;28;21508;-67
2023/06/25 00:48:25;;;;;;;11.70;4.57;;;23.20;78.50;;;23.61;nan;100954.00;4972917;28;20625;-67
2023/06/25 00:50:52;;;;;;;9.40;4.40;;;23.00;79.20;;;23.52;nan;100947.13;4990905;28;20626;-68
2023/06/25 00:53:20;;;;;;;5.77;4.30;;;23.00;79.70;;;23.51;nan;100947.31;4986431;28;21014;-65
2023/06/25 00:55:50;;;;;;;7.13;4.50;;;22.90;80.00;;;23.46;nan;100950.53;4982627;28;20675;-67
2023/06/25 00:58:22;;;;;;;7.50;4.20;;;22.90;80.40;;;23.40;nan;100948.63;4983686;28;20650;-69
2023/06/25 01:00:54;;;;;;;4.80;4.30;;;22.80;80.60;;;23.37;nan;100948.16;4965465;28;20986;-67
2023/06/25 01:03:32;;;;;;;5.00;4.30;;;22.80;80.40;;;23.27;nan;100945.75;4983664;28;20712;-68
2023/06/25 01:06:05;;;;;;;4.23;3.90;;;22.80;80.60;;;23.22;nan;100944.63;4971849;28;21245;-69
2023/06/25 01:08:41;;;;;;;5.10;4.27;;;22.70;81.00;;;23.17;nan;100947.84;4984181;28;20634;-67
2023/06/25 01:11:10;;;;;;;9.87;4.50;;;22.60;81.60;;;23.13;nan;100946.56;4979311;28;20622;-69
2023/06/25 01:13:37;;;;;;;4.13;3.80;;;22.60;82.10;;;23.07;nan;100945.47;4990765;28;20733;-67
2023/06/25 01:16:05;;;;;;;5.67;4.40;;;22.50;82.60;;;23.08;nan;100938.31;4991919;28;20665;-67
2023/06/25 01:18:33;;;;;;;4.23;3.63;;;22.50;83.10;;;23.11;nan;100940.59;4984904;28;20980;-69
2023/06/25 01:21:01;;;;;;;5.17;4.17;;;22.50;84.00;;;23.12;nan;100940.44;4987546;28;20654;-67
2023/06/25 01:23:29;;;;;;;5.67;4.00;;;22.50;83.30;;;23.17;nan;100939.06;4970606;28;20680;-67
2023/06/25 01:25:56;;;;;;;7.40;4.70;;;22.60;83.40;;;23.21;nan;100943.00;4975636;28;20674;-67
2023/06/25 01:28:23;;;;;;;6.30;4.57;;;22.60;83.70;;;23.24;nan;100932.78;4979490;28;20617;-67
2023/06/25 01:30:52;;;;;;;4.97;4.50;;;22.60;83.60;;;23.26;nan;100925.44;4989996;28;20980;-68
2023/06/25 01:33:22;;;;;;;6.30;4.67;;;22.60;83.80;;;23.30;nan;100933.91;4989200;28;20649;-65
2023/06/25 01:35:49;;;;;;;5.30;4.10;;;22.70;84.00;;;23.33;nan;100931.72;4992097;28;21039;-67
2023/06/25 01:38:16;;;;;;;5.03;4.47;;;22.70;83.90;;;23.34;nan;100932.56;4988697;28;20672;-68
2023/06/25 01:40:43;;;;;;;18.23;5.07;;;22.70;84.00;;;23.36;nan;100928.69;4985082;28;20615;-70
2023/06/25 01:43:10;;;;;;;6.50;4.47;;;22.70;84.00;;;23.40;nan;100926.47;4987991;28;20662;-68
2023/06/25 01:45:37;;;;;;;5.10;4.50;;;22.80;83.90;;;23.39;nan;100924.81;4993323;28;21033;-68
2023/06/25 01:48:06;;;;;;;4.43;4.13;;;22.80;84.00;;;23.39;nan;100922.16;4988413;28;20630;-68
2023/06/25 01:50:33;;;;;;;7.13;4.90;;;22.80;84.20;;;23.38;nan;100923.19;4976203;28;20646;-69
2023/06/25 01:53:00;;;;;;;5.80;4.70;;;22.80;84.50;;;23.35;nan;100919.06;4985393;28;20646;-68
2023/06/25 01:55:27;;;;;;;5.97;5.20;;;22.80;84.70;;;23.35;nan;100913.72;4986439;28;20670;-69
2023/06/25 01:57:54;;;;;;;8.80;5.87;;;22.80;84.90;;;23.30;nan;100907.28;4990667;28;21213;-68
2023/06/25 02:00:22;;;;;;;5.93;4.97;;;22.70;84.90;;;23.28;nan;100909.28;4989647;28;20630;-68
2023/06/25 02:02:49;;;;;;;7.73;5.57;;;22.70;84.90;;;23.27;nan;100907.66;4988382;28;21103;-69
2023/06/25 02:05:16;;;;;;;5.70;4.90;;;22.70;85.00;;;23.27;nan;100910.31;4989544;28;21261;-66
2023/06/25 02:07:43;;;;;;;6.50;4.90;;;22.70;85.20;;;23.25;nan;100901.69;4986890;28;20638;-68
2023/06/25 02:10:12;;;;;;;6.97;4.50;;;22.70;85.40;;;23.25;nan;100904.34;4988402;28;20642;-68
2023/06/25 02:12:39;;;;;;;6.13;4.80;;;22.70;85.60;;;23.25;nan;100904.34;4972848;28;20630;-68
2023/06/25 02:15:07;;;;;;;7.57;5.87;;;22.70;85.70;;;23.21;nan;100901.25;4991301;28;20669;-68
2023/06/25 02:17:34;;;;;;;6.77;5.00;;;22.60;86.10;;;23.19;nan;100902.44;4992998;28;20660;-68
2023/06/25 02:20:01;;;;;;;5.80;5.20;;;22.60;86.40;;;23.17;nan;100889.28;4992442;28;21190;-68
2023/06/25 02:22:28;;;;;;;5.77;4.83;;;22.60;86.80;;;23.17;nan;100896.47;4998561;28;20674;-68
2023/06/25 02:24:55;;;;;;;8.13;5.50;;;22.60;87.30;;;23.14;nan;100898.50;4991461;28;21262;-68
2023/06/25 02:27:22;;;;;;;5.70;4.20;;;22.60;87.60;;;23.11;nan;100896.19;4993728;28;20622;-69
2023/06/25 02:29:49;;;;;;;7.07;5.20;;;22.60;87.80;;;23.04;nan;100897.91;4991500;28;20654;-67
2023/06/25 02:32:16;;;;;;;6.60;4.63;;;22.50;88.00;;;22.93;nan;100901.06;4994290;28;20603;-70
2023/06/25 02:34:43;;;;;;;6.40;4.60;;;22.40;88.50;;;22.86;nan;100897.47;4991101;28;20634;-68
2023/06/25 02:37:16;;;;;;;6.10;5.40;;;22.30;89.10;;;22.78;nan;100900.25;5007160;28;20637;-67
2023/06/25 02:39:43;;;;;;;7.87;6.00;;;22.20;89.60;;;22.67;nan;100899.84;4993043;28;20663;-67
2023/06/25 02:42:10;;;;;;;9.67;6.00;;;22.20;90.10;;;22.55;nan;100896.78;4994104;28;21063;-68
2023/06/25 02:44:37;;;;;;;6.40;5.17;;;22.00;90.40;;;22.48;nan;100895.84;4992572;28;21154;-67
2023/06/25 02:47:05;;;;;;;4.90;4.30;;;21.90;90.70;;;22.42;nan;100901.91;4974797;28;21215;-68
2023/06/25 02:49:32;;;;;;;5.63;4.37;;;21.90;91.00;;;22.34;nan;100899.28;4994008;28;20646;-67
2023/06/25 02:51:59;;;;;;;4.90;4.20;;;21.80;91.30;;;22.26;nan;100902.03;5009586;28;20594;-67
2023/06/25 02:54:26;;;;;;;5.50;4.30;;;21.70;91.60;;;22.18;nan;100902.09;4991203;28;20638;-67
2023/06/25 02:56:53;;;;;;;5.50;4.53;;;21.70;92.00;;;22.09;nan;100897.84;4993089;28;20666;-68
2023/06/25 02:59:20;;;;;;;7.20;4.30;;;21.60;92.40;;;22.03;nan;100898.56;4991660;28;20642;-67
2023/06/25 03:01:47;;;;;;;5.13;4.40;;;21.50;92.70;;;21.95;nan;100898.63;4996452;28;20642;-68
2023/06/25 03:04:14;;;;;;;5.33;4.20;;;21.40;93.00;;;21.90;nan;100893.84;4990739;28;20634;-67
2023/06/25 03:06:42;;;;;;;5.97;4.40;;;21.40;93.20;;;21.90;nan;100898.31;5002972;28;20657;-67
2023/06/25 03:09:09;;;;;;;4.70;4.20;;;21.40;93.20;;;21.80;nan;100900.34;4979135;28;20633;-67
2023/06/25 03:11:36;;;;;;;5.80;4.77;;;21.30;93.30;;;21.73;nan;100896.75;4987554;28;20614;-68
2023/06/25 03:14:04;;;;;;;5.57;4.00;;;21.20;93.70;;;21.71;nan;100890.78;4991427;28;20634;-67
2023/06/25 03:16:31;;;;;;;5.70;4.50;;;21.20;94.00;;;21.69;nan;100895.44;4999157;28;20664;-69
2023/06/25 03:18:58;;;;;;;7.77;4.40;;;21.20;94.50;;;21.69;nan;100904.25;4980544;28;20633;-68
2023/06/25 03:21:25;;;;;;;6.17;4.47;;;21.20;94.70;;;21.67;nan;100890.31;4990735;28;20863;-68
2023/06/25 03:23:52;;;;;;;7.30;5.40;;;21.20;95.20;;;21.70;nan;100897.91;4988481;28;20658;-69
2023/06/25 03:26:19;;;;;;;6.07;4.30;;;21.20;94.80;;;21.71;nan;100901.41;4996297;28;20661;-68
2023/06/25 03:28:46;;;;;;;6.70;5.40;;;21.20;94.80;;;21.67;nan;100897.44;4990785;28;20634;-69
2023/06/25 03:31:14;;;;;;;6.80;5.20;;;21.20;95.20;;;21.61;nan;100889.16;4991937;28;20634;-68
2023/06/25 03:33:41;;;;;;;6.97;6.10;;;21.10;95.00;;;21.65;nan;100894.97;4990885;28;20704;-68
2023/06/25 03:36:08;;;;;;;6.97;5.33;;;21.10;95.10;;;21.66;nan;100896.59;4996696;28;20665;-68
2023/06/25 03:38:35;;;;;;;8.10;4.53;;;21.10;95.10;;;21.67;nan;100897.44;4986725;28;20649;-70
2023/06/25 03:41:02;;;;;;;4.57;4.10;;;21.10;95.30;;;21.64;nan;100888.00;4987064;28;20762;-69
2023/06/25 03:43:29;;;;;;;7.60;5.77;;;21.10;95.30;;;21.61;nan;100886.50;4986135;28;20688;-68
2023/06/25 03:45:56;;;;;;;7.77;4.80;;;21.10;95.50;;;21.62;nan;100877.56;4986936;28;20665;-69
2023/06/25 03:48:23;;;;;;;8.07;5.77;;;21.10;95.60;;;21.64;nan;100872.88;4990653;28;20627;-69
2023/06/25 03:50:50;;;;;;;7.07;5.10;;;21.10;95.70;;;21.73;nan;100878.16;4974063;28;20638;-68
2023/06/25 03:53:17;;;;;;;6.30;5.03;;;21.20;95.70;;;21.80;nan;100876.44;4987175;28;20623;-67
2023/06/25 03:55:44;;;;;;;9.50;5.77;;;21.20;95.60;;;21.93;nan;100871.41;4990819;28;20643;-68
2023/06/25 03:58:11;;;;;;;8.90;6.07;;;21.30;95.60;;;22.11;nan;100885.19;4981103;28;21131;-68
2023/06/25 04:00:39;;;;;;;6.60;5.20;;;21.50;95.30;;;22.13;nan;100883.19;4993147;28;20638;-68
2023/06/25 04:03:06;;;;;;;4.77;4.27;;;21.60;95.10;;;22.09;nan;100882.72;4992733;28;20678;-69
2023/06/25 04:05:33;;;;;;;10.47;4.70;;;21.60;95.00;;;22.04;nan;100884.28;4992396;28;21221;-68
2023/06/25 04:08:00;;;;;;;5.10;4.27;;;21.50;95.30;;;22.03;nan;100882.63;4991010;28;20634;-68
2023/06/25 04:10:29;;;;;;;7.53;4.83;;;21.50;95.00;;;22.11;nan;100885.19;4988548;28;21194;-68
2023/06/25 04:12:56;;;;;;;5.03;4.53;;;21.60;94.90;;;22.21;nan;100883.16;4989163;28;20642;-66
2023/06/25 04:15:23;;;;;;;6.03;4.10;;;21.70;94.60;;;22.32;nan;100880.03;4990529;28;20654;-68
2023/06/25 04:17:50;;;;;;;4.87;4.10;;;21.80;94.50;;;22.49;nan;100888.72;4991037;28;20646;-69
2023/06/25 04:20:17;;;;;;;4.20;3.80;;;21.90;94.20;;;22.57;nan;100885.97;4989559;28;20638;-68
2023/06/25 04:22:44;;;;;;;4.83;4.30;;;22.00;94.00;;;22.68;nan;100875.72;4989296;28;20650;-68
2023/06/25 04:25:11;;;;;;;7.30;4.37;;;22.20;93.90;;;22.83;nan;100876.53;4990312;28;20658;-67
2023/06/25 04:27:39;;;;;;;4.43;3.93;;;22.30;93.60;;;23.00;nan;100882.50;4989846;28;20630;-68
2023/06/25 04:30:07;;;;;;;5.70;4.03;;;22.40;93.40;;;23.11;nan;100884.69;4992154;28;20603;-67
2023/06/25 04:32:34;;;;;;;4.10;3.70;;;22.50;93.20;;;23.30;nan;100888.66;4991300;28;20625;-68
2023/06/25 04:35:01;;;;;;;6.47;4.10;;;22.70;92.90;;;23.48;nan;100895.25;4989301;28;20725;-68
2023/06/25 04:37:28;;;;;;;5.07;4.20;;;22.90;92.50;;;23.63;nan;100895.22;4990397;28;21509;-69
2023/06/25 04:39:56;;;;;;;4.53;4.13;;;23.10;92.30;;;23.74;nan;100900.03;4986595;28;20650;-66
2023/06/25 04:42:23;;;;;;;6.50;5.17;;;23.20;91.90;;;23.83;nan;100896.22;4988992;28;21194;-67
2023/06/25 04:44:52;;;;;;;5.50;4.70;;;23.30;91.70;;;23.95;nan;100894.72;4988086;28;20618;-69
2023/06/25 04:47:19;;;;;;;5.33;4.70;;;23.40;91.50;;;24.08;nan;100896.72;4976373;28;20643;-68
2023/06/25 04:49:46;;;;;;;6.50;5.40;;;23.60;91.30;;;24.22;nan;100893.97;4989249;28;20618;-68
2023/06/25 04:52:18;;;;;;;9.57;5.23;;;23.70;91.30;;;24.47;nan;100894.38;4991366;28;20622;-68
2023/06/25 04:54:46;;;;;;;8.20;4.80;;;23.90;91.10;;;24.70;nan;100891.47;4989221;28;20622;-67
2023/06/25 04:57:12;;;;;;;8.30;4.60;;;24.10;90.80;;;24.85;nan;100905.56;4991174;28;20653;-67
2023/06/25 04:59:40;;;;;;;7.43;5.43;;;24.30;90.70;;;24.95;nan;100904.19;4988850;28;20656;-67
2023/06/25 05:02:07;;;;;;;8.03;5.77;;;24.40;90.40;;;25.10;nan;100898.72;4990024;28;20646;-67
2023/06/25 05:04:34;;;;;;;5.77;5.13;;;24.60;90.30;;;25.36;nan;100901.50;4982802;28;20674;-68
2023/06/25 05:07:01;;;;;;;5.50;4.90;;;24.80;90.10;;;25.54;nan;100900.97;4990593;28;20661;-67
2023/06/25 05:09:28;;;;;;;4.77;4.37;;;24.90;89.90;;;25.78;nan;100905.75;4990101;28;20639;-67
2023/06/25 05:11:55;;;;;;;5.00;4.40;;;25.20;89.60;;;25.88;nan;100909.69;5010504;28;20628;-68
2023/06/25 05:14:22;;;;;;;4.27;3.87;;;25.30;89.20;;;25.80;nan;100912.56;5004912;28;20642;-68
2023/06/25 05:16:49;;;;;;;7.77;5.40;;;25.30;89.20;;;25.83;nan;100900.66;4990109;28;20703;-66
2023/06/25 05:19:16;;;;;;;5.60;4.87;;;25.30;89.40;;;26.03;nan;100906.84;4989746;28;21008;-68
2023/06/25 05:21:43;;;;;;;6.03;5.37;;;25.50;89.40;;;26.25;nan;100896.81;4989277;28;20650;-67
2023/06/25 05:24:11;;;;;;;8.30;6.33;;;25.70;89.00;;;26.39;nan;100898.44;4972843;28;20662;-67
2023/06/25 05:26:37;;;;;;;8.00;6.60;;;25.80;88.50;;;26.72;nan;100901.91;4991856;28;20670;-68
2023/06/25 05:29:05;;;;;;;10.00;6.30;;;26.00;87.70;;;27.07;nan;100903.28;4989138;28;21189;-68
2023/06/25 05:31:32;;;;;;;8.37;5.93;;;26.40;87.00;;;27.36;nan;100905.50;4991241;28;20622;-68
2023/06/25 05:33:59;;;;;;;8.27;6.30;;;26.70;86.60;;;27.60;nan;100903.91;4991250;28;21201;-68
2023/06/25 05:36:28;;;;;;;6.67;5.97;;;26.90;86.00;;;27.85;nan;100904.00;4990816;28;20685;-68
2023/06/25 05:38:55;;;;;;;8.07;7.20;;;27.20;84.80;;;28.03;nan;100904.91;5002302;28;20633;-68
2023/06/25 05:41:22;;;;;;;6.77;5.97;;;27.40;84.60;;;28.18;nan;100897.38;4989815;28;20630;-67
2023/06/25 05:43:49;;;;;;;5.60;5.07;;;27.60;84.50;;;28.37;nan;100907.13;4993565;28;20695;-68
2023/06/25 05:46:17;;;;;;;10.33;6.13;;;27.70;83.90;;;28.40;nan;100912.06;4991884;28;20662;-67
2023/06/25 05:48:44;;;;;;;6.87;3.80;;;27.90;84.00;;;28.34;nan;100912.13;4991044;28;20602;-68
2023/06/25 05:51:11;;;;;;;6.67;5.43;;;27.80;83.90;;;28.28;nan;100915.69;4991722;28;20638;-68
2023/06/25 05:53:42;;;;;;;6.40;5.73;;;27.80;84.10;;;28.52;nan;100920.22;4991591;28;21647;-67
2023/06/25 05:56:09;;;;;;;6.43;5.77;;;27.90;84.10;;;28.73;nan;100916.34;4987496;28;21076;-65
2023/06/25 05:58:37;;;;;;;7.40;6.47;;;28.10;84.80;;;28.99;nan;100911.50;4976498;28;21129;-68
2023/06/25 06:01:04;;;;;;;6.40;5.67;;;28.30;83.50;;;29.08;nan;100910.19;4989319;28;20639;-67
2023/06/25 06:03:31;;;;;;;6.57;5.83;;;28.50;82.50;;;29.22;nan;100918.13;4984031;28;20673;-65
2023/06/25 06:06:00;;;;;;;5.30;4.80;;;28.60;81.80;;;29.49;nan;100919.41;4975907;28;20666;-67
2023/06/25 06:08:27;;;;;;;8.40;6.57;;;28.80;81.10;;;29.75;nan;100919.09;4991941;28;21196;-67
2023/06/25 06:10:54;;;;;;;6.37;5.77;;;29.10;80.40;;;29.99;nan;100915.41;4995025;28;20669;-68
2023/06/25 06:13:21;;;;;;;7.30;5.93;;;29.30;79.30;;;30.18;nan;100921.53;4987874;28;20741;-67
2023/06/25 06:15:48;;;;;;;6.30;5.50;;;29.50;78.80;;;30.46;nan;100919.88;4990508;28;21046;-68
2023/06/25 06:18:15;;;;;;;6.97;5.30;;;29.70;78.30;;;30.82;nan;100928.75;4988323;28;21072;-67
2023/06/25 06:20:42;;;;;;;5.90;5.30;;;30.00;77.90;;;31.22;nan;100925.09;4993780;28;20645;-68
2023/06/25 06:23:09;;;;;;;6.50;5.90;;;30.40;76.20;;;31.46;nan;100930.44;4991436;28;20666;-67
2023/06/25 06:25:37;;;;;;;6.30;5.33;;;30.70;75.30;;;31.81;nan;100923.84;4985876;28;21288;-65
2023/06/25 06:28:05;;;;;;;8.23;5.23;;;31.00;74.20;;;32.14;nan;100937.41;4987944;28;20642;-67
2023/06/25 06:30:32;;;;;;;5.80;5.27;;;31.40;72.80;;;32.55;nan;100930.00;4989123;28;20622;-67
2023/06/25 06:32:59;;;;;;;6.20;5.60;;;31.80;71.40;;;32.97;nan;100928.44;4987876;28;20654;-66
2023/06/25 06:35:26;;;;;;;5.90;5.27;;;32.20;69.80;;;33.36;nan;100923.84;5000791;28;20727;-67
2023/06/25 06:37:53;;;;;;;6.73;4.77;;;32.60;69.00;;;33.83;nan;100922.22;4995653;28;20646;-67
2023/06/25 06:40:20;;;;;;;5.40;4.87;;;33.00;67.00;;;34.29;nan;100931.56;4988595;28;20980;-66
2023/06/25 06:42:47;;;;;;;3.97;3.67;;;33.50;65.90;;;34.72;nan;100927.84;4989107;28;20625;-68
2023/06/25 06:45:14;;;;;;;6.43;5.67;;;33.90;64.50;;;34.84;nan;100934.69;4987659;28;20677;-67
2023/06/25 06:47:43;;;;;;;6.40;5.80;;;34.20;64.30;;;35.26;nan;100934.66;4984175;28;20625;-69
2023/06/25 06:50:10;;;;;;;7.97;6.40;;;34.60;63.70;;;35.55;nan;100930.44;4987597;28;20646;-65
2023/06/25 06:52:37;;;;;;;6.33;5.73;;;35.00;63.20;;;36.13;nan;100936.53;4989401;28;20632;-69
2023/06/25 06:55:05;;;;;;;4.63;4.23;;;35.40;62.50;;;36.57;nan;100933.00;4987262;28;20670;-67
2023/06/25 06:57:32;;;;;;;5.00;4.57;;;36.00;61.10;;;37.04;nan;100942.69;4990066;28;20645;-68
2023/06/25 06:59:59;;;;;;;4.67;4.30;;;36.40;60.10;;;37.81;nan;100931.19;4991883;28;20638;-67
2023/06/25 07:02:26;;;;;;;5.47;4.97;;;37.00;59.10;;;38.34;nan;100926.69;5001988;28;20616;-68
2023/06/25 07:04:53;;;;;;;5.03;4.57;;;37.60;58.00;;;38.91;nan;100923.94;5006061;28;20662;-67
2023/06/25 07:07:21;;;;;;;5.13;4.63;;;38.20;57.60;;;39.16;nan;100929.13;4993630;28;20633;-66
2023/06/25 07:09:53;;;;;;;4.57;4.30;;;38.60;55.90;;;39.82;nan;100933.69;4990793;28;20649;-65
2023/06/25 07:12:21;;;;;;;4.70;4.40;;;39.20;54.60;;;40.09;nan;100931.09;4975916;28;21217;-67
2023/06/25 07:14:48;;;;;;;5.70;5.27;;;39.50;53.60;;;40.61;nan;100933.47;4988590;28;20651;-67
2023/06/25 07:17:15;;;;;;;5.60;5.10;;;39.90;53.00;;;41.06;nan;100940.00;4991241;28;20649;-67
2023/06/25 07:19:42;;;;;;;6.20;5.70;;;40.40;52.20;;;41.23;nan;100942.09;4994337;28;20646;-69
2023/06/25 07:22:09;;;;;;;5.10;4.70;;;40.70;51.40;;;41.51;nan;100941.75;4992328;28;21013;-68
2023/06/25 07:24:36;;;;;;;5.10;4.70;;;41.00;50.60;;;41.77;nan;100941.19;4986369;28;21483;-68
2023/06/25 07:27:04;;;;;;;5.23;4.83;;;41.20;50.40;;;41.99;nan;100922.84;4993306;28;20633;-68
2023/06/25 07:29:31;;;;;;;4.43;4.13;;;41.50;49.30;;;42.69;nan;100930.38;4997134;28;20645;-67
2023/06/25 07:31:58;;;;;;;3.77;3.57;;;42.00;48.00;;;42.78;nan;100936.72;4993200;28;20816;-68
2023/06/25 07:34:25;;;;;;;4.77;4.40;;;42.20;46.90;;;43.17;nan;100931.22;4993832;28;21056;-65
2023/06/25 07:36:52;;;;;;;3.90;3.70;;;42.60;46.40;;;43.33;nan;100940.63;4990914;28;20681;-68
2023/06/25 07:39:29;;;;;;;4.00;3.80;;;42.80;46.00;;;43.42;nan;100938.69;4990153;28;21048;-69
2023/06/25 07:41:57;;;;;;;4.00;3.60;;;43.00;45.80;;;43.51;nan;100936.75;4972797;28;20614;-69
2023/06/25 07:44:25;;;;;;;4.37;4.07;;;43.00;45.30;;;43.61;nan;100933.69;4988135;28;20674;-70
2023/06/25 07:47:12;;;;;;;5.17;4.73;;;43.20;45.00;;;43.95;nan;100932.88;4991039;28;21044;-68
2023/06/25 07:49:39;;;;;;;3.97;3.67;;;43.50;44.80;;;44.52;nan;100934.25;4993821;28;20638;-69
2023/06/25 07:52:06;;;;;;;4.40;4.10;;;43.90;44.30;;;44.88;nan;100930.22;4990481;28;20607;-69
2023/06/25 07:54:33;;;;;;;4.57;4.37;;;44.20;43.90;;;44.99;nan;100935.03;4989741;28;20630;-69
2023/06/25 07:57:00;;;;;;;4.53;4.23;;;44.40;43.60;;;44.89;nan;100927.16;4992846;28;20662;-69
2023/06/25 07:59:27;;;;;;;4.97;4.67;;;44.50;43.30;;;45.08;nan;100930.28;4991870;28;20625;-69
2023/06/25 08:02:08;;;;;;;5.10;4.80;;;44.70;43.10;;;45.48;nan;100927.91;4978667;28;20617;-70
2023/06/25 08:04:35;;;;;;;4.40;4.10;;;45.10;42.50;;;45.51;nan;100918.16;4991017;28;20665;-67
2023/06/25 08:07:03;;;;;;;4.40;4.20;;;45.20;42.30;;;45.85;nan;100915.94;4989438;28;20641;-71
2023/06/25 08:09:31;;;;;;;5.50;5.10;;;45.40;42.20;;;45.78;nan;100921.19;4989250;28;20630;-70
2023/06/25 08:11:58;;;;;;;4.73;4.50;;;45.50;41.90;;;45.87;nan;100918.34;4991703;28;20616;-69
2023/06/25 08:14:25;;;;;;;4.53;4.13;;;45.60;41.70;;;45.87;nan;100915.59;4991072;28;20628;-69
2023/06/25 08:16:52;;;;;;;3.73;3.53;;;45.70;41.60;;;46.09;nan;100913.28;4991144;28;20670;-68
2023/06/25 08:19:19;;;;;;;3.63;3.53;;;45.90;41.00;;;46.48;nan;100911.06;4987697;28;20646;-71
2023/06/25 08:21:46;;;;;;;5.07;4.67;;;46.50;40.10;;;47.06;nan;100913.41;4982026;28;20653;-72
2023/06/25 08:24:13;;;;;;;5.17;4.77;;;46.50;40.70;;;47.58;nan;100916.16;4989000;28;21045;-71
2023/06/25 08:26:40;;;;;;;4.53;4.33;;;47.10;40.60;;;48.04;nan;100912.75;4989545;28;20660;-68
2023/06/25 08:29:07;;;;;;;4.60;4.40;;;47.50;40.10;;;48.33;nan;100913.53;4992196;28;20640;-67
2023/06/25 08:31:34;;;;;;;4.57;4.27;;;47.90;39.70;;;47.92;nan;100910.03;4973655;28;20204;-70
2023/06/25 08:34:01;;;;;;;4.63;4.33;;;47.70;39.40;;;48.36;nan;100907.25;4990243;28;20713;-69
2023/06/25 08:36:28;;;;;;;3.97;3.77;;;47.90;39.40;;;48.36;nan;100887.88;4991322;28;20227;-69
2023/06/25 08:38:55;;;;;;;4.50;4.20;;;48.00;39.00;;;48.72;nan;100893.13;4991334;28;20610;-69
2023/06/25 08:41:23;;;;;;;4.70;4.50;;;48.30;39.10;;;49.30;nan;100903.22;4989391;28;20942;-67
2023/06/25 08:43:50;;;;;;;4.38;4.18;;;48.80;38.90;;;49.61;nan;100902.28;4990495;28;20239;-68
2023/06/25 08:46:17;;;;;;;4.30;4.20;;;49.20;38.50;;;50.01;nan;100899.91;4989155;28;20221;-68
2023/06/25 08:48:47;;;;;;;3.97;3.78;;;49.60;38.20;;;50.25;nan;100902.34;4973723;28;20202;-67
2023/06/25 08:51:19;;;;;;;4.50;4.30;;;49.90;37.10;;;50.05;nan;100897.22;4991096;28;20205;-68
2023/06/25 08:53:46;;;;;;;4.32;4.13;;;49.80;36.50;;;50.21;nan;100901.50;4988196;28;20213;-66
2023/06/25 08:56:17;;;;;;;3.67;3.58;;;49.80;36.80;;;50.08;nan;100893.69;4989549;28;20229;-67
2023/06/25 08:58:44;;;;;;;3.78;3.67;;;49.90;36.00;;;49.72;nan;100901.31;4990943;28;20199;-67
2023/06/25 09:01:14;;;;;;;4.80;4.60;;;49.60;36.10;;;46.93;nan;100886.13;4989237;28;20205;-67
2023/06/25 09:03:42;;;;;;;4.47;4.27;;;47.30;35.30;;;46.75;nan;100886.34;4992447;28;20214;-68
2023/06/25 09:06:14;;;;;;;4.13;4.03;;;46.60;35.60;;;46.75;nan;100877.25;5003633;28;20227;-72
2023/06/25 09:08:43;;;;;;;4.00;3.90;;;46.70;35.20;;;47.22;nan;100881.13;4996367;28;20605;-68
2023/06/25 09:11:11;;;;;;;3.43;3.33;;;47.10;35.50;;;47.12;nan;100880.81;4974880;28;20196;-68
2023/06/25 09:13:39;;;;;;;3.97;3.80;;;47.30;34.90;;;46.29;nan;100875.75;4989745;28;20195;-70
2023/06/25 09:16:10;;;;;;;3.77;3.57;;;46.40;35.20;;;46.25;nan;100874.81;4972724;28;20317;-68
2023/06/25 09:18:37;;;;;;;3.97;3.77;;;46.30;35.30;;;47.07;nan;100872.78;4999006;28;20663;-65
2023/06/25 09:21:09;;;;;;;3.40;3.20;;;46.60;35.10;;;46.58;nan;100877.50;4991171;28;20211;-66
2023/06/25 09:23:37;;;;;;;3.47;3.37;;;46.70;34.80;;;45.98;nan;100864.41;4987535;28;21003;-65
2023/06/25 09:26:08;;;;;;;3.43;3.30;;;45.90;35.10;;;46.62;nan;100862.63;4989940;28;20727;-66
2023/06/25 09:28:52;;;;;;;3.30;3.10;;;46.20;35.30;;;47.70;nan;100862.78;4972399;28;21196;-65
2023/06/25 09:31:19;;;;;;;2.40;2.30;;;47.10;34.80;;;47.52;nan;100854.78;4989727;28;20626;-66
2023/06/25 09:33:53;;;;;;;3.20;2.30;;;47.40;34.50;;;45.11;nan;100854.44;4988120;28;20206;-69
2023/06/25 09:36:20;;;;;;;2.50;2.40;;;45.80;35.20;;;43.78;nan;100842.22;4990261;28;20669;-67
2023/06/25 09:39:06;;;;;;;3.47;3.27;;;44.00;35.90;;;43.22;nan;100840.41;4989485;28;20621;-66
2023/06/25 09:41:35;;;;;;;3.07;2.90;;;43.40;36.30;;;43.12;nan;100832.50;5009373;28;20617;-68
2023/06/25 09:44:04;;;;;;;2.73;2.63;;;43.10;36.50;;;41.90;nan;100828.78;4993426;28;20662;-66
2023/06/25 09:46:38;;;;;;;3.97;3.67;;;42.40;36.80;;;41.70;nan;100826.56;4989803;28;20646;-66
2023/06/25 09:49:07;;;;;;;3.53;3.37;;;41.40;37.40;;;42.79;nan;100825.78;4989069;28;20650;-67
2023/06/25 09:51:47;;;;;;;3.03;2.83;;;42.30;37.00;;;42.20;nan;100810.72;4989791;28;20634;-66
2023/06/25 09:54:18;;;;;;;3.17;3.00;;;42.20;37.30;;;42.32;nan;100832.88;4986462;28;21196;-70
2023/06/25 09:56:49;;;;;;;3.70;3.40;;;42.10;37.30;;;41.31;nan;100808.03;4973447;28;21239;-67
2023/06/25 09:59:16;;;;;;;3.37;3.20;;;41.10;37.50;;;42.16;nan;100812.50;4953226;28;20627;-67
2023/06/25 10:01:44;;;;;;;3.77;3.53;;;41.40;37.50;;;43.22;nan;100799.22;4970368;28;20690;-67
2023/06/25 10:04:12;;;;;;;3.67;3.47;;;42.30;37.40;;;42.82;nan;100811.44;4984630;28;21032;-66
2023/06/25 10:06:39;;;;;;;4.17;3.87;;;42.10;37.40;;;42.68;nan;100808.03;4972209;28;20647;-68
2023/06/25 10:09:07;;;;;;;3.87;3.57;;;41.90;37.40;;;41.15;nan;100797.75;4973631;28;20638;-66
2023/06/25 10:11:35;;;;;;;4.03;3.73;;;40.50;38.00;;;40.62;nan;100803.78;4962009;28;20621;-67
2023/06/25 10:14:04;;;;;;;3.27;3.00;;;39.80;38.50;;;40.12;nan;100796.56;4985033;28;21186;-67
2023/06/25 10:16:33;;;;;;;1.87;1.63;;;39.20;39.20;;;39.38;nan;100790.13;4971988;28;21010;-68
2023/06/25 10:19:03;;;;;;;2.73;2.60;;;38.60;39.20;;;39.19;nan;100791.25;4988268;28;20729;-68
2023/06/25 10:21:31;;;;;;;4.03;3.73;;;38.10;39.90;;;38.40;nan;100783.81;4988523;28;20622;-68
2023/06/25 10:24:03;;;;;;;1.63;1.53;;;37.40;40.20;;;37.06;nan;100788.16;4988631;28;20613;-67
2023/06/25 10:26:35;;;;;;;3.10;2.80;;;36.70;40.10;;;35.71;nan;100787.44;4987222;28;21097;-67
2023/06/25 10:29:07;;;;;;;3.73;2.97;;;35.30;41.50;;;34.96;nan;100767.22;5002609;28;20633;-67